createdAt,value
2022-12-11T00:00:10.267Z,99199.38
2022-12-11T00:01:10.903Z,99198.47
2022-12-11T00:02:10.007Z,99199.48
2022-12-11T00:03:15.398Z,99194.66
2022-12-11T00:04:12.316Z,99198
2022-12-11T00:05:12.545Z,99199.51
2022-12-11T00:06:14.342Z,99193.16
2022-12-11T00:07:12.444Z,99194.45
2022-12-11T00:08:12.763Z,99198.59
2022-12-11T00:09:12.404Z,99193.34
2022-12-11T00:10:12.411Z,99192.59
2022-12-11T00:11:13.441Z,99193.5
2022-12-11T00:12:12.512Z,99198.17
2022-12-11T00:13:12.438Z,99198.97
2022-12-11T00:14:13.222Z,99194.45
2022-12-11T00:15:13.072Z,99197.2
2022-12-11T00:16:12.623Z,99196.88
2022-12-11T00:17:12.550Z,99196.28
2022-12-11T00:18:13.200Z,99196.55
2022-12-11T00:19:12.530Z,99199.55
2022-12-11T00:20:12.541Z,99197.3
2022-12-11T00:21:13.877Z,99198.41
2022-12-11T00:22:12.578Z,99200.65
2022-12-11T00:23:12.587Z,99201.45
2022-12-11T00:24:12.604Z,99202.42
2022-12-11T00:25:13.092Z,99202.62
2022-12-11T00:26:13.701Z,99200.58
2022-12-11T00:27:12.689Z,99200.31
2022-12-11T00:28:14.142Z,99200.91
2022-12-11T00:29:12.861Z,99200.26
2022-12-11T00:30:13.481Z,99198.89
2022-12-11T00:31:14.783Z,99201.03
2022-12-11T00:32:12.794Z,99200.17
2022-12-11T00:33:13.673Z,99206.28
2022-12-11T00:34:12.746Z,99203.06
2022-12-11T00:35:13.151Z,99204.68
2022-12-11T00:36:17.380Z,99196.88
2022-12-11T00:37:13.790Z,99205.21
2022-12-11T00:38:17.714Z,99203.87
2022-12-11T00:39:13.954Z,99208.45
2022-12-11T00:40:13.980Z,99204.8
2022-12-11T00:41:14.146Z,99209.88
2022-12-11T00:42:13.977Z,99208.58
2022-12-11T00:43:14.047Z,99210.03
2022-12-11T00:44:14.014Z,99206
2022-12-11T00:45:14.178Z,99209.16
2022-12-11T00:46:14.697Z,99202.94
2022-12-11T00:47:14.152Z,99210.62
2022-12-11T00:48:14.047Z,99207.83
2022-12-11T00:49:14.188Z,99205.2
2022-12-11T00:50:14.123Z,99206.27
2022-12-11T00:51:14.125Z,99206.12
2022-12-11T00:52:14.089Z,99207.36
2022-12-11T00:53:14.535Z,99206.02
2022-12-11T00:54:14.130Z,99208.58
2022-12-11T00:55:14.294Z,99209.61
2022-12-11T00:57:14.539Z,99208.59
2022-12-11T00:58:14.596Z,99207.2
2022-12-11T00:59:14.493Z,99207.52
2022-12-11T01:00:14.727Z,99209.03
2022-12-11T01:01:15.995Z,99209.47
2022-12-11T01:02:14.572Z,99212.73
2022-12-11T01:03:14.753Z,99216.07
2022-12-11T01:04:14.546Z,99212.16
2022-12-11T01:05:14.776Z,99213.34
2022-12-11T01:06:18.979Z,99209.62
2022-12-11T01:07:15.207Z,99216.95
2022-12-11T01:08:15.236Z,99213.01
2022-12-11T01:09:15.219Z,99214.79
2022-12-11T01:10:15.590Z,99214.81
2022-12-11T01:11:16.373Z,99212.83
2022-12-11T01:12:15.273Z,99216.01
2022-12-11T01:13:15.358Z,99212.83
2022-12-11T01:14:15.271Z,99215.5
2022-12-11T01:15:15.499Z,99212.93
2022-12-11T01:16:15.484Z,99219.12
2022-12-11T01:17:15.324Z,99216.71
2022-12-11T01:18:15.354Z,99213.5
2022-12-11T01:19:15.363Z,99217.34
2022-12-11T01:20:15.448Z,99212.88
2022-12-11T01:21:15.437Z,99210.95
2022-12-11T01:22:15.395Z,99215.73
2022-12-11T01:23:15.389Z,99215.84
2022-12-11T01:24:15.416Z,99216.81
2022-12-11T01:25:15.453Z,99215.06
2022-12-11T01:26:15.614Z,99212.83
2022-12-11T01:27:15.630Z,99213.74
2022-12-11T01:28:15.461Z,99215.58
2022-12-11T01:29:15.574Z,99218.66
2022-12-11T01:30:15.504Z,99220.59
2022-12-11T01:31:16.323Z,99220.48
2022-12-11T01:32:16.008Z,99220.69
2022-12-11T01:33:15.526Z,99216.77
2022-12-11T01:34:15.551Z,99215.42
2022-12-11T01:35:15.912Z,99215.86
2022-12-11T01:36:18.023Z,99208.44
2022-12-11T01:37:15.593Z,99210.81
2022-12-11T01:38:15.595Z,99210.49
2022-12-11T01:39:15.598Z,99211.08
2022-12-11T01:40:16.763Z,99212.59
2022-12-11T01:41:16.177Z,99208.23
2022-12-11T01:42:17.963Z,99206.09
2022-12-11T01:43:15.650Z,99197.5
2022-12-11T01:46:18.707Z,99204.88
2022-12-11T01:47:19.021Z,99195.84
2022-12-11T01:48:23.478Z,99201
2022-12-11T01:49:21.344Z,99205.09
2022-12-11T01:50:19.929Z,99204.7
2022-12-11T01:51:20.229Z,99208.3
2022-12-11T01:52:21.085Z,99204.66
2022-12-11T01:53:22.601Z,99208.69
2022-12-11T01:54:21.374Z,99204.23
2022-12-11T01:55:20.437Z,99206.22
2022-12-11T01:56:19.967Z,99207.97
2022-12-11T01:57:19.823Z,99204.91
2022-12-11T01:58:20.688Z,99205.84
2022-12-11T01:59:23.327Z,99211.55
2022-12-11T02:00:20.415Z,99208.83
2022-12-11T02:02:24.309Z,99209.16
2022-12-11T02:03:21.793Z,99209.16
2022-12-11T02:04:21.783Z,99209.91
2022-12-11T02:05:21.647Z,99211.66
2022-12-11T02:07:26.084Z,99210.47
2022-12-11T02:08:26.176Z,99211.59
2022-12-11T02:09:33.075Z,99207.08
2022-12-11T02:22:03.256Z,99215.38
2022-12-11T02:29:17.851Z,99211.72
2022-12-11T02:30:16.023Z,99210.63
2022-12-11T02:33:27.052Z,99213.97
2022-12-11T02:34:28.519Z,99219.3
2022-12-11T02:36:32.111Z,99215.11
2022-12-11T02:37:30.991Z,99222.75
2022-12-11T02:38:32.221Z,99224.01
2022-12-11T02:39:31.104Z,99224.44
2022-12-11T02:40:30.740Z,99222
2022-12-11T02:41:29.766Z,99223.52
2022-12-11T02:42:31.125Z,99220.52
2022-12-11T02:43:30.742Z,99220.44
2022-12-11T02:44:31.838Z,99220.41
2022-12-11T02:45:30.984Z,99221.48
2022-12-11T02:46:30.829Z,99218.97
2022-12-11T02:47:30.250Z,99220.36
2022-12-11T02:48:30.350Z,99218.42
2022-12-11T02:49:31.198Z,99216.82
2022-12-11T02:50:30.154Z,99220.91
2022-12-11T02:51:32.335Z,99214.94
2022-12-11T02:52:31.182Z,99219.66
2022-12-11T02:53:31.309Z,99218.58
2022-12-11T02:54:31.761Z,99222.08
2022-12-11T02:55:32.046Z,99217.94
2022-12-11T02:56:32.934Z,99223.91
2022-12-11T02:58:32.965Z,99218.87
2022-12-11T02:59:33.798Z,99221.67
2022-12-11T03:00:30.929Z,99220.64
2022-12-11T03:01:30.854Z,99219.14
2022-12-11T03:02:30.854Z,99216.83
2022-12-11T03:03:30.747Z,99221.12
2022-12-11T03:04:31.784Z,99217.37
2022-12-11T03:05:30.782Z,99220.27
2022-12-11T03:07:33.118Z,99218.98
2022-12-11T03:08:31.805Z,99215.85
2022-12-11T03:09:31.764Z,99210.31
2022-12-11T03:10:31.448Z,99211.61
2022-12-11T03:11:31.331Z,99213.97
2022-12-11T03:12:32.756Z,99214.67
2022-12-11T03:13:31.386Z,99211.77
2022-12-11T03:14:31.493Z,99208.44
2022-12-11T03:16:37.576Z,99210
2022-12-11T03:21:58.204Z,99200.27
2022-12-11T03:25:03.977Z,99202.28
2022-12-11T03:28:09.213Z,99199.54
2022-12-11T03:29:18.073Z,99200.32
2022-12-11T03:30:14.668Z,99198.6
2022-12-11T03:31:14.443Z,99198.12
2022-12-11T03:32:19.090Z,99194.25
2022-12-11T03:33:18.987Z,99190.61
2022-12-11T03:34:22.414Z,99190.98
2022-12-11T03:37:23.522Z,99189.75
2022-12-11T03:40:27.674Z,99191.26
2022-12-11T03:41:27.832Z,99190.98
2022-12-11T03:42:27.322Z,99193.25
2022-12-11T03:43:28.394Z,99192.61
2022-12-11T03:44:27.761Z,99192.88
2022-12-11T03:45:28.610Z,99187.98
2022-12-11T03:47:29.660Z,99187.77
2022-12-11T03:48:30.738Z,99188.14
2022-12-11T03:49:30.130Z,99188.89
2022-12-11T03:50:30.810Z,99191.05
2022-12-11T03:51:29.557Z,99193.2
2022-12-11T03:52:28.990Z,99194.88
2022-12-11T03:53:28.419Z,99192.12
2022-12-11T03:54:28.988Z,99192.12
2022-12-11T03:55:29.383Z,99192.77
2022-12-11T03:56:30.660Z,99189.44
2022-12-11T03:58:30.752Z,99187.55
2022-12-11T03:59:30.580Z,99189.22
2022-12-11T04:00:30.743Z,99189
2022-12-11T04:01:30.662Z,99189.86
2022-12-11T04:02:30.827Z,99184.05
2022-12-11T04:03:30.659Z,99190.3
2022-12-11T04:04:30.641Z,99187.39
2022-12-11T04:05:30.584Z,99187.02
2022-12-11T04:06:30.618Z,99188.36
2022-12-11T04:07:30.678Z,99189.87
2022-12-11T04:08:30.670Z,99186.91
2022-12-11T04:09:30.650Z,99187.04
2022-12-11T04:10:30.692Z,99189.92
2022-12-11T04:11:30.689Z,99185.13
2022-12-11T04:12:30.731Z,99182.98
2022-12-11T04:13:30.709Z,99182.02
2022-12-11T04:14:31.283Z,99184.41
2022-12-11T04:15:30.757Z,99184.22
2022-12-11T04:16:30.734Z,99181.09
2022-12-11T04:17:31.821Z,99179.66
2022-12-11T04:18:30.802Z,99180.31
2022-12-11T04:19:30.781Z,99177.94
2022-12-11T04:20:30.847Z,99178.27
2022-12-11T04:21:35.088Z,99177.03
2022-12-11T04:22:34.148Z,99180.15
2022-12-11T04:23:34.098Z,99178.16
2022-12-11T04:24:34.377Z,99180.95
2022-12-11T04:25:34.160Z,99180.84
2022-12-11T04:26:34.150Z,99179.34
2022-12-11T04:27:34.278Z,99183.7
2022-12-11T04:28:34.479Z,99181.49
2022-12-11T04:29:34.172Z,99180.69
2022-12-11T04:30:34.632Z,99176.54
2022-12-11T04:31:34.312Z,99177.35
2022-12-11T04:32:34.295Z,99173.59
2022-12-11T04:33:34.252Z,99180.36
2022-12-11T04:34:34.260Z,99176.27
2022-12-11T04:35:34.288Z,99179.12
2022-12-11T04:36:34.325Z,99178.59
2022-12-11T04:37:34.779Z,99177.24
2022-12-11T04:38:34.351Z,99175.14
2022-12-11T04:39:34.291Z,99175.41
2022-12-11T04:40:34.328Z,99175.03
2022-12-11T04:41:34.676Z,99179.61
2022-12-11T04:42:34.344Z,99175.2
2022-12-11T04:43:34.882Z,99173.91
2022-12-11T04:44:34.402Z,99176.01
2022-12-11T04:45:34.407Z,99179.18
2022-12-11T04:46:34.521Z,99177.94
2022-12-11T04:47:35.557Z,99185.09
2022-12-11T04:48:34.477Z,99181.88
2022-12-11T04:49:34.514Z,99183.75
2022-12-11T04:50:34.452Z,99182.62
2022-12-11T04:51:34.495Z,99178.58
2022-12-11T04:52:34.510Z,99182.62
2022-12-11T04:53:34.996Z,99183.38
2022-12-11T04:54:34.548Z,99188.22
2022-12-11T04:55:34.526Z,99190.86
2022-12-11T04:56:34.536Z,99186.02
2022-12-11T04:57:34.709Z,99187.58
2022-12-11T04:58:34.805Z,99190.27
2022-12-11T04:59:34.625Z,99193.33
2022-12-11T05:00:34.584Z,99186.34
2022-12-11T05:01:34.620Z,99192.41
2022-12-11T05:02:35.465Z,99191.77
2022-12-11T05:03:34.957Z,99188.76
2022-12-11T05:04:35.063Z,99188.17
2022-12-11T05:05:34.625Z,99185.91
2022-12-11T05:06:34.653Z,99184.56
2022-12-11T05:07:34.947Z,99183.8
2022-12-11T05:08:35.639Z,99180.31
2022-12-11T05:09:34.971Z,99181.22
2022-12-11T05:10:34.736Z,99174.98
2022-12-11T05:11:36.023Z,99181.17
2022-12-11T05:12:34.743Z,99179.82
2022-12-11T05:13:34.753Z,99185.31
2022-12-11T05:14:34.778Z,99185.26
2022-12-11T05:15:34.974Z,99187.14
2022-12-11T05:16:34.831Z,99186.98
2022-12-11T05:17:34.798Z,99187.73
2022-12-11T05:18:35.139Z,99189.56
2022-12-11T05:19:34.831Z,99187.57
2022-12-11T05:20:34.895Z,99188.75
2022-12-11T05:21:35.446Z,99189.88
2022-12-11T05:22:34.961Z,99189.61
2022-12-11T05:23:35.156Z,99195.42
2022-12-11T05:24:34.902Z,99197.05
2022-12-11T05:25:34.974Z,99198.55
2022-12-11T05:26:34.941Z,99204.8
2022-12-11T05:27:34.931Z,99203.12
2022-12-11T05:28:36.373Z,99209.31
2022-12-11T05:29:34.948Z,99209.09
2022-12-11T05:30:34.974Z,99209.33
2022-12-11T05:31:35.204Z,99214.93
2022-12-11T05:32:35.017Z,99212.86
2022-12-11T05:33:35.138Z,99217.7
2022-12-11T05:34:35.034Z,99215.5
2022-12-11T05:35:35.050Z,99211.03
2022-12-11T05:36:35.048Z,99214.34
2022-12-11T05:37:35.044Z,99211.65
2022-12-11T05:38:35.113Z,99208.83
2022-12-11T05:39:35.118Z,99215.04
2022-12-11T05:40:35.116Z,99213.2
2022-12-11T05:41:35.107Z,99211.59
2022-12-11T05:42:35.123Z,99218.97
2022-12-11T05:43:36.378Z,99216.98
2022-12-11T05:44:35.133Z,99218.21
2022-12-11T05:45:35.175Z,99216.76
2022-12-11T05:46:35.324Z,99217.62
2022-12-11T05:47:35.181Z,99216.38
2022-12-11T05:48:35.966Z,99214.28
2022-12-11T05:49:35.279Z,99210.34
2022-12-11T05:50:35.222Z,99208.68
2022-12-11T05:51:35.294Z,99209.27
2022-12-11T05:52:35.239Z,99212.45
2022-12-11T05:53:36.137Z,99211.86
2022-12-11T05:54:35.282Z,99210.73
2022-12-11T05:55:35.399Z,99209.97
2022-12-11T05:56:35.454Z,99209.22
2022-12-11T05:57:35.297Z,99208.78
2022-12-11T05:58:35.826Z,99209.7
2022-12-11T05:59:35.335Z,99209.16
2022-12-11T06:00:36.310Z,99206.69
2022-12-11T06:02:36.122Z,99212.39
2022-12-11T06:03:35.504Z,99213.36
2022-12-11T06:04:35.470Z,99210.67
2022-12-11T06:05:39.042Z,99214.6
2022-12-11T06:06:35.796Z,99215.78
2022-12-11T06:07:35.526Z,99214.55
2022-12-11T06:08:35.586Z,99215.56
2022-12-11T06:09:35.526Z,99215.02
2022-12-11T06:10:35.575Z,99211.86
2022-12-11T06:11:35.703Z,99211.22
2022-12-11T06:12:35.617Z,99211.7
2022-12-11T06:13:36.058Z,99210.79
2022-12-11T06:14:35.630Z,99207.98
2022-12-11T06:15:35.624Z,99205.72
2022-12-11T06:16:35.698Z,99206.1
2022-12-11T06:17:35.645Z,99205.08
2022-12-11T06:18:39.994Z,99210.14
2022-12-11T06:19:37.125Z,99210.84
2022-12-11T06:20:36.262Z,99202.44
2022-12-11T06:21:36.256Z,99207.55
2022-12-11T06:22:36.256Z,99208.09
2022-12-11T06:23:36.295Z,99205.78
2022-12-11T06:24:36.586Z,99203.3
2022-12-11T06:25:38.707Z,99206.8
2022-12-11T06:26:36.296Z,99202.81
2022-12-11T06:27:36.319Z,99198.88
2022-12-11T06:28:36.540Z,99200.45
2022-12-11T06:29:36.345Z,99199.91
2022-12-11T06:30:38.974Z,99204.8
2022-12-11T06:31:36.546Z,99204.16
2022-12-11T06:32:36.376Z,99203.73
2022-12-11T06:33:36.423Z,99203.83
2022-12-11T06:34:36.420Z,99209.22
2022-12-11T06:35:42.068Z,99204.75
2022-12-11T06:36:39.818Z,99203.19
2022-12-11T06:37:39.263Z,99203.35
2022-12-11T06:38:38.863Z,99203.89
2022-12-11T06:39:38.841Z,99205.02
2022-12-11T06:40:39.017Z,99207.59
2022-12-11T06:41:38.852Z,99209.48
2022-12-11T06:42:38.902Z,99216.81
2022-12-11T06:43:39.714Z,99223.97
2022-12-11T06:44:38.954Z,99219.98
2022-12-11T06:45:38.983Z,99228.75
2022-12-11T06:46:38.941Z,99224.93
2022-12-11T06:47:39.106Z,99224.61
2022-12-11T06:48:39.140Z,99222.56
2022-12-11T06:49:38.991Z,99224.23
2022-12-11T06:50:39.071Z,99217.72
2022-12-11T06:51:39.327Z,99217.61
2022-12-11T06:52:39.151Z,99218.95
2022-12-11T06:53:39.373Z,99214.7
2022-12-11T06:54:39.049Z,99218.31
2022-12-11T06:55:39.087Z,99215.12
2022-12-11T06:56:39.284Z,99211.68
2022-12-11T06:57:39.173Z,99217.59
2022-12-11T06:58:39.517Z,99216.25
2022-12-11T06:59:39.207Z,99222.98
2022-12-11T07:00:39.221Z,99221.42
2022-12-11T07:01:39.181Z,99224.6
2022-12-11T07:02:39.283Z,99227.78
2022-12-11T07:03:39.182Z,99227.23
2022-12-11T07:04:39.206Z,99232.19
2022-12-11T07:05:39.259Z,99231.17
2022-12-11T07:06:39.242Z,99231.55
2022-12-11T07:07:39.324Z,99231.49
2022-12-11T07:08:39.772Z,99228.12
2022-12-11T07:09:40.121Z,99226.61
2022-12-11T07:10:39.391Z,99229.89
2022-12-11T07:11:39.362Z,99225.91
2022-12-11T07:12:39.349Z,99227.58
2022-12-11T07:13:39.761Z,99226.45
2022-12-11T07:14:39.363Z,99224.78
2022-12-11T07:15:40.642Z,99227.47
2022-12-11T07:16:39.454Z,99228.59
2022-12-11T07:17:39.632Z,99224.77
2022-12-11T07:18:40.331Z,99230.38
2022-12-11T07:19:39.564Z,99226.61
2022-12-11T07:20:39.457Z,99224.66
2022-12-11T07:21:39.591Z,99223.53
2022-12-11T07:22:46.020Z,99228.11
2022-12-11T07:23:42.818Z,99224.98
2022-12-11T07:24:42.792Z,99229.24
2022-12-11T07:25:42.809Z,99227.45
2022-12-11T07:26:42.834Z,99230.69
2022-12-11T07:27:42.827Z,99232.15
2022-12-11T07:28:43.370Z,99236.94
2022-12-11T07:29:42.846Z,99234.36
2022-12-11T07:30:43.039Z,99237.27
2022-12-11T07:31:43.075Z,99236.73
2022-12-11T07:32:43.014Z,99236.89
2022-12-11T07:33:43.482Z,99235.38
2022-12-11T07:34:46.060Z,99238.93
2022-12-11T07:35:46.376Z,99239.14
2022-12-11T07:36:46.407Z,99235.48
2022-12-11T07:37:46.431Z,99235.48
2022-12-11T07:38:46.515Z,99238.61
2022-12-11T07:39:46.467Z,99238.77
2022-12-11T07:40:46.471Z,99238.55
2022-12-11T07:41:46.490Z,99240.22
2022-12-11T07:42:46.564Z,99241.73
2022-12-11T07:43:46.746Z,99241.84
2022-12-11T07:44:46.687Z,99236.67
2022-12-11T07:45:46.627Z,99237.04
2022-12-11T07:46:46.568Z,99234.72
2022-12-11T07:47:46.613Z,99236.07
2022-12-11T07:48:47.483Z,99239.62
2022-12-11T07:49:47.667Z,99236.66
2022-12-11T07:50:46.629Z,99237.25
2022-12-11T07:51:46.628Z,99238.87
2022-12-11T07:52:46.723Z,99237.2
2022-12-11T07:53:49.070Z,99239.3
2022-12-11T07:54:46.697Z,99246.3
2022-12-11T07:55:46.674Z,99240.53
2022-12-11T07:56:52.784Z,99240.27
2022-12-11T07:57:49.937Z,99238.28
2022-12-11T07:58:50.263Z,99241.57
2022-12-11T07:59:49.965Z,99243.56
2022-12-11T08:00:50.053Z,99246.3
2022-12-11T08:01:50.184Z,99245.17
2022-12-11T08:02:50.036Z,99244.53
2022-12-11T08:03:50.068Z,99244.05
2022-12-11T08:04:50.037Z,99248.83
2022-12-11T08:05:50.644Z,99250.83
2022-12-11T08:06:50.255Z,99250.72
2022-12-11T08:07:50.166Z,99247.75
2022-12-11T08:08:50.126Z,99248.19
2022-12-11T08:09:50.120Z,99250.12
2022-12-11T08:10:50.136Z,99246.78
2022-12-11T08:11:50.353Z,99245.16
2022-12-11T08:12:50.142Z,99247.32
2022-12-11T08:13:50.280Z,99249.96
2022-12-11T08:14:50.247Z,99247.53
2022-12-11T08:15:50.211Z,99245.38
2022-12-11T08:16:50.332Z,99243.38
2022-12-11T08:17:50.302Z,99242.36
2022-12-11T08:18:50.264Z,99239.94
2022-12-11T08:19:50.333Z,99239.98
2022-12-11T08:20:50.314Z,99239.02
2022-12-11T08:21:50.305Z,99233.85
2022-12-11T08:22:54.607Z,99238.06
2022-12-11T08:23:54.209Z,99232.57
2022-12-11T08:24:53.821Z,99237.73
2022-12-11T08:25:53.824Z,99236.02
2022-12-11T08:26:53.837Z,99229.82
2022-12-11T08:27:53.857Z,99233.97
2022-12-11T08:28:54.359Z,99236.17
2022-12-11T08:29:53.923Z,99236.07
2022-12-11T08:30:53.940Z,99239.89
2022-12-11T08:31:54.001Z,99235.41
2022-12-11T08:32:53.917Z,99236.06
2022-12-11T08:33:55.007Z,99232.51
2022-12-11T08:34:54.008Z,99237.2
2022-12-11T08:35:54.027Z,99235.62
2022-12-11T08:36:53.991Z,99239.08
2022-12-11T08:37:54.011Z,99235.69
2022-12-11T08:38:54.845Z,99236.06
2022-12-11T08:39:54.068Z,99235.62
2022-12-11T08:40:54.079Z,99236.97
2022-12-11T08:41:54.085Z,99235.48
2022-12-11T08:42:54.101Z,99231.95
2022-12-11T08:43:54.399Z,99239.5
2022-12-11T08:44:54.136Z,99236.93
2022-12-11T08:45:54.172Z,99230.72
2022-12-11T08:46:54.160Z,99236.06
2022-12-11T08:47:54.175Z,99233.64
2022-12-11T08:48:54.772Z,99234.06
2022-12-11T08:49:54.246Z,99233.09
2022-12-11T08:50:54.224Z,99233.09
2022-12-11T08:51:54.235Z,99229.53
2022-12-11T08:52:54.265Z,99229.7
2022-12-11T08:53:58.022Z,99225.7
2022-12-11T08:54:54.326Z,99226.74
2022-12-11T08:55:54.365Z,99229.7
2022-12-11T08:56:58.007Z,99224.69
2022-12-11T08:57:54.638Z,99225.39
2022-12-11T08:58:54.649Z,99222.8
2022-12-11T08:59:54.611Z,99214.73
2022-12-11T09:00:54.730Z,99214.84
2022-12-11T09:01:55.183Z,99218.12
2022-12-11T09:02:54.767Z,99214.56
2022-12-11T09:03:55.106Z,99216.83
2022-12-11T09:04:54.762Z,99214.83
2022-12-11T09:05:54.716Z,99210.23
2022-12-11T09:06:54.721Z,99213.2
2022-12-11T09:07:54.800Z,99213.85
2022-12-11T09:08:55.589Z,99211.22
2022-12-11T09:09:55.399Z,99209.17
2022-12-11T09:10:54.806Z,99204.33
2022-12-11T09:11:54.870Z,99200.13
2022-12-11T09:12:54.846Z,99200.93
2022-12-11T09:13:55.182Z,99195.75
2022-12-11T09:14:54.861Z,99201.84
2022-12-11T09:15:54.928Z,99203.2
2022-12-11T09:16:54.902Z,99204.17
2022-12-11T09:17:54.934Z,99203.52
2022-12-11T09:18:56.376Z,99203.34
2022-12-11T09:19:55.007Z,99195.27
2022-12-11T09:22:00.417Z,99202.17
2022-12-11T09:23:01.185Z,99191.72
2022-12-11T09:24:00.947Z,99195.02
2022-12-11T09:25:00.520Z,99197.33
2022-12-11T09:26:03.153Z,99191.56
2022-12-11T09:27:01.057Z,99196.52
2022-12-11T09:28:00.980Z,99198.72
2022-12-11T09:29:02.304Z,99196.14
2022-12-11T09:30:01.269Z,99203.8
2022-12-11T09:31:01.239Z,99193.72
2022-12-11T09:32:01.255Z,99199.11
2022-12-11T09:33:01.117Z,99195.66
2022-12-11T09:34:02.785Z,99200.5
2022-12-11T09:35:01.129Z,99199.42
2022-12-11T09:36:01.627Z,99196.73
2022-12-11T09:37:01.579Z,99198.72
2022-12-11T09:38:01.176Z,99194.95
2022-12-11T09:39:02.517Z,99195.28
2022-12-11T09:40:07.091Z,99189.12
2022-12-11T09:45:15.758Z,99191.34
2022-12-11T09:46:15.844Z,99190.47
2022-12-11T09:50:24.335Z,99183.41
2022-12-11T09:51:27.690Z,99190.16
2022-12-11T09:52:30.642Z,99185.64
2022-12-11T09:53:34.094Z,99188.16
2022-12-11T09:54:31.616Z,99182.03
2022-12-11T10:00:49.177Z,99168.77
2022-12-11T10:08:05.763Z,99172.98
2022-12-11T10:15:26.578Z,99166.8
2022-12-11T10:17:27.433Z,99169.06
2022-12-11T10:18:26.060Z,99171.92
2022-12-11T10:19:30.526Z,99174.84
2022-12-11T10:20:29.834Z,99167.42
2022-12-11T10:21:29.653Z,99169.62
2022-12-11T10:22:29.867Z,99164.19
2022-12-11T10:23:30.282Z,99169.73
2022-12-11T10:26:31.199Z,99165.36
2022-12-11T10:27:35.673Z,99161.33
2022-12-11T10:28:32.031Z,99165.8
2022-12-11T10:29:31.914Z,99168.33
2022-12-11T10:34:48.481Z,99164.67
2022-12-11T10:36:48.196Z,99159.66
2022-12-11T10:37:48.448Z,99162.67
2022-12-11T10:38:48.205Z,99162.3
2022-12-11T10:39:48.242Z,99162.24
2022-12-11T10:40:54.840Z,99161.55
2022-12-11T10:41:52.685Z,99164.02
2022-12-11T10:42:51.773Z,99163
2022-12-11T10:43:52.900Z,99160.95
2022-12-11T10:45:54.484Z,99161.03
2022-12-11T10:48:01.799Z,99162.91
2022-12-11T10:48:57.775Z,99158.72
2022-12-11T10:49:58.732Z,99160.65
2022-12-11T10:51:04.383Z,99155.97
2022-12-11T10:51:56.897Z,99158.88
2022-12-11T10:52:56.250Z,99151.39
2022-12-11T10:54:02.593Z,99156.5
2022-12-11T10:55:02.326Z,99150.8
2022-12-11T10:55:59.844Z,99146.6
2022-12-11T10:57:00.440Z,99149.62
2022-12-11T10:58:03.785Z,99149.67
2022-12-11T10:59:01.238Z,99148.59
2022-12-11T11:00:00.809Z,99147.23
2022-12-11T11:01:10.943Z,99150.59
2022-12-11T11:02:04.208Z,99144.17
2022-12-11T11:03:03.748Z,99144.94
2022-12-11T11:04:04.047Z,99140.73
2022-12-11T11:10:17.875Z,99136.05
2022-12-11T11:12:25.092Z,99136.05
2022-12-11T11:13:23.328Z,99137.28
2022-12-11T11:14:22.212Z,99135.94
2022-12-11T11:15:30.931Z,99137.02
2022-12-11T11:16:22.678Z,99140.12
2022-12-11T11:17:22.618Z,99132.81
2022-12-11T11:18:25.990Z,99136.97
2022-12-11T11:19:33.391Z,99138.31
2022-12-11T11:20:26.452Z,99135.73
2022-12-11T11:21:25.836Z,99135.45
2022-12-11T11:22:25.147Z,99134.05
2022-12-11T11:23:25.349Z,99128.03
2022-12-11T11:24:34.847Z,99139.02
2022-12-11T11:25:28.660Z,99133.8
2022-12-11T11:26:43.559Z,99141.97
2022-12-11T11:29:34.188Z,99131.58
2022-12-11T11:30:41.796Z,99135.2
2022-12-11T11:31:34.337Z,99136.16
2022-12-11T11:32:36.147Z,99132.72
2022-12-11T11:33:34.280Z,99133.14
2022-12-11T11:34:33.076Z,99129.53
2022-12-11T11:35:33.109Z,99132.88
2022-12-11T11:36:34.754Z,99130.5
2022-12-11T11:37:33.930Z,99130.94
2022-12-11T11:39:41.747Z,99123.99
2022-12-11T11:40:41.817Z,99129.71
2022-12-11T11:43:46.669Z,99118.73
2022-12-11T11:44:52.523Z,99121.7
2022-12-11T11:46:01.830Z,99122.12
2022-12-11T11:47:06.810Z,99122.14
2022-12-11T11:51:07.751Z,99120.41
2022-12-11T11:52:11.974Z,99118.58
2022-12-11T11:55:20.217Z,99124.23
2022-12-11T11:56:17.973Z,99118.69
2022-12-11T11:58:18.743Z,99111.26
2022-12-11T12:00:23.810Z,99109.8
2022-12-11T12:01:20.688Z,99112.23
2022-12-11T12:02:20.564Z,99112.06
2022-12-11T12:03:21.436Z,99107.38
2022-12-11T12:04:20.099Z,99103.03
2022-12-11T12:05:25.631Z,99103.19
2022-12-11T12:07:40.676Z,99099.09
2022-12-11T12:10:34.584Z,99104.27
2022-12-11T12:12:43.240Z,99099.35
2022-12-11T12:14:55.092Z,99103.02
2022-12-11T12:17:56.306Z,99100.11
2022-12-11T12:25:24.100Z,99088.84
2022-12-11T12:27:50.928Z,99088.64
2022-12-11T12:30:30.739Z,99089.33
2022-12-11T12:32:44.941Z,99081.95
2022-12-11T12:33:46.025Z,99083.95
2022-12-11T12:34:45.229Z,99081.7
2022-12-11T12:35:55.812Z,99081.05
2022-12-11T12:47:10.354Z,99069.45
2022-12-11T12:48:08.311Z,99061.33
2022-12-11T12:49:10.605Z,99067.36
2022-12-11T12:51:12.936Z,99063.38
2022-12-11T12:54:17.652Z,99056.39
2022-12-11T12:56:19.486Z,99050.09
2022-12-11T12:57:18.522Z,99051.6
2022-12-11T12:59:25.700Z,99046.53
2022-12-11T13:01:26.205Z,99041.9
2022-12-11T13:02:24.405Z,99042
2022-12-11T13:03:25.711Z,99042.19
2022-12-11T13:04:54.581Z,99040.83
2022-12-11T13:05:27.060Z,99035.06
2022-12-11T13:06:29.155Z,99029.27
2022-12-11T13:07:27.384Z,99032.48
2022-12-11T13:08:26.693Z,99033.19
2022-12-11T13:09:26.477Z,99025.49
2022-12-11T13:10:30.555Z,99026.03
2022-12-11T13:11:34.270Z,99025.02
2022-12-11T13:12:32.972Z,99023.95
2022-12-11T13:13:33.026Z,99022.12
2022-12-11T13:14:31.206Z,99024.1
2022-12-11T13:15:38.303Z,99021.31
2022-12-11T13:17:38.020Z,99024.31
2022-12-11T13:18:38.488Z,99025.19
2022-12-11T13:19:42.074Z,99017
2022-12-11T13:20:46.404Z,99017.75
2022-12-11T13:21:42.645Z,99016.74
2022-12-11T13:23:44.806Z,99015.92
2022-12-11T13:25:54.103Z,99010.75
2022-12-11T13:26:51.142Z,99009.67
2022-12-11T13:27:50.546Z,99008.7
2022-12-11T13:28:50.502Z,99001.38
2022-12-11T13:29:50.507Z,99001.77
2022-12-11T13:31:56.853Z,99002.03
2022-12-11T13:32:58.665Z,99008.05
2022-12-11T13:33:57.076Z,99005.3
2022-12-11T13:34:58.268Z,98997.94
2022-12-11T13:36:56.125Z,98994.21
2022-12-11T13:37:58.487Z,98990.72
2022-12-11T13:39:57.363Z,98997.23
2022-12-11T13:40:56.807Z,98990.44
2022-12-11T13:41:59.635Z,98992.17
2022-12-11T13:43:02.255Z,98996.58
2022-12-11T13:43:58.733Z,98982.54
2022-12-11T13:44:58.760Z,98986.41
2022-12-11T13:46:02.780Z,98986.67
2022-12-11T13:47:00.338Z,98979.73
2022-12-11T13:47:59.456Z,98984.27
2022-12-11T13:49:01.060Z,98981.47
2022-12-11T13:51:01.484Z,98987.58
2022-12-11T13:52:01.349Z,98983.42
2022-12-11T13:53:03.391Z,98989.23
2022-12-11T13:54:16.475Z,98985.8
2022-12-11T13:55:16.564Z,98981.55
2022-12-11T13:56:16.017Z,98982.52
2022-12-11T13:57:17.140Z,98985.53
2022-12-11T13:58:20.677Z,98981.97
2022-12-11T13:59:23.234Z,98988.97
2022-12-11T14:00:24.817Z,98970.25
2022-12-11T14:01:24.288Z,98977.25
2022-12-11T14:02:29.699Z,98982.89
2022-12-11T14:03:26.622Z,98979.61
2022-12-11T14:04:27.158Z,98972.19
2022-12-11T14:05:26.674Z,98970.19
2022-12-11T14:06:27.266Z,98962.72
2022-12-11T14:07:28.150Z,98960.88
2022-12-11T14:08:30.738Z,98958.46
2022-12-11T14:09:28.096Z,98960.19
2022-12-11T14:10:29.432Z,98960.45
2022-12-11T14:11:30.133Z,98960.61
2022-12-11T14:12:28.310Z,98957.8